首页
METAR-TAF:

METAR-TAF

机场 :

臺北松山機場

臺北, 台湾

纬度: 25-04N, 经度: 121-33E, 海拔: 6米

当前天气观测

该预报发布于16分钟前的00:00 UTC
风速2节,风向多变
温度 20°C
湿度 94%
气压 1019 hPa
能見度: 9000
少量云层高于1200英尺
散云层高于5000英尺

METAR: RCSS 110000Z VRB02KT 9000 FEW012 SCT050 20/19 Q1019 NOSIG RMK A3009

时间: 08:16 (00:16 UTC)

预报

该预报发布于1小时和16分钟前的23:00 UTC
预报有效从11日的 00点(UTC)到 11日的 24点(UTC)
风速5节,风向
能见度10公里或以上
少量云层高于1200英尺
多云层高于3200英尺
短暂存在
从 11日的 06点(UTC)到 11日的 10点(UTC)
风速12节,风向东转东北
成为
从 11日的 10点(UTC)到 11日的 12点(UTC)
风速12节,风向

TAF: RCSS 102300Z 1100/1124 09005KT 9999 FEW012 BKN032 TEMPO 1106/1110 07012KT BECMG 1110/1112 09012KT

超过4000个机场的气象观测和天气预报(METAR&TAF报告)。

可查询的气象台以黄色和红色小点在地图上表示。

将鼠标移到小点上方,可查看气象台名称。

然后点击查看天气观测和预报。

如需切换地图:点击带黑十字的绿色按钮放大地图;点击带横线的绿色按钮缩小地图;或者点击绿色箭头查看邻近地区的地图。


METAR-TAF: